Time;durP1;ratioP1;P1;durP2;ratioP2;P2;SDS_P1;SDS_P2;PMS_P1;PMS_P2;Temp;Humidity;BMP_temperature;BMP_pressure;BME280_temperature;BME280_humidity;BME280_pressure;Samples;Min_cycle;Max_cycle;Signal;HPM_P1;HPM_P2
2022/03/28 00:01:10;;;;;;;16.30;8.33;;;2.90;28.40;;;;;;5055439;28;47191;-65
2022/03/28 00:03:36;;;;;;;16.02;8.30;;;2.80;28.40;;;;;;5066008;28;46383;-65
2022/03/28 00:06:03;;;;;;;18.45;9.27;;;2.80;28.50;;;;;;5062878;28;46216;-65
2022/03/28 00:08:28;;;;;;;23.63;9.10;;;2.80;28.50;;;;;;5064902;28;46560;-64
2022/03/28 00:10:54;;;;;;;21.33;9.13;;;2.80;28.70;;;;;;5066947;28;47009;-64
2022/03/28 00:13:20;;;;;;;26.13;9.05;;;2.80;28.70;;;;;;5060681;28;45922;-67
2022/03/28 00:15:46;;;;;;;19.40;9.13;;;2.70;28.70;;;;;;5064906;28;46467;-65
2022/03/28 00:18:12;;;;;;;23.27;9.60;;;2.70;28.70;;;;;;5064790;28;46471;-68
2022/03/28 00:20:38;;;;;;;17.05;8.55;;;2.70;28.80;;;;;;5062947;28;46473;-65
2022/03/28 00:23:05;;;;;;;15.30;8.10;;;2.60;28.90;;;;;;5065417;28;46354;-66
2022/03/28 00:25:31;;;;;;;23.25;9.32;;;2.60;28.90;;;;;;5062706;28;46474;-66
2022/03/28 00:27:56;;;;;;;17.53;8.80;;;2.60;29.00;;;;;;5063823;28;46484;-67
2022/03/28 00:30:22;;;;;;;16.07;9.23;;;2.60;29.00;;;;;;5061408;28;47086;-65
2022/03/28 00:32:47;;;;;;;20.37;8.87;;;2.50;29.00;;;;;;5064437;28;45801;-65
2022/03/28 00:35:13;;;;;;;19.27;9.17;;;2.50;29.10;;;;;;5068079;28;46302;-69
2022/03/28 00:37:41;;;;;;;17.83;9.10;;;2.40;29.20;;;;;;5052414;28;46835;-65
2022/03/28 00:40:08;;;;;;;20.90;9.60;;;2.30;29.20;;;;;;5063327;28;46381;-64
2022/03/28 00:42:37;;;;;;;18.38;9.23;;;2.30;29.30;;;;;;5066835;28;46442;-66
2022/03/28 00:45:04;;;;;;;18.70;9.23;;;2.30;29.50;;;;;;5070745;28;46463;-66
2022/03/28 00:47:30;;;;;;;22.45;9.45;;;2.20;29.50;;;;;;5063392;28;46604;-66
2022/03/28 00:49:56;;;;;;;17.73;8.57;;;2.20;30.50;;;;;;5063283;28;47029;-67
2022/03/28 00:52:22;;;;;;;24.75;8.93;;;2.20;29.60;;;;;;5061049;28;46435;-67
2022/03/28 00:54:48;;;;;;;19.35;8.13;;;2.20;29.70;;;;;;5064119;28;46412;-67
2022/03/28 00:57:14;;;;;;;26.20;9.23;;;2.20;29.60;;;;;;5062852;28;46466;-65
2022/03/28 00:59:40;;;;;;;20.50;9.60;;;2.20;29.70;;;;;;5060106;28;46327;-65
2022/03/28 01:02:06;;;;;;;18.42;9.48;;;2.10;29.70;;;;;;5060643;28;46466;-65
2022/03/28 01:04:31;;;;;;;14.37;8.60;;;2.10;29.80;;;;;;5062852;28;46378;-65
2022/03/28 01:06:57;;;;;;;19.60;8.67;;;2.10;29.90;;;;;;5062510;28;46393;-66
2022/03/28 01:09:23;;;;;;;14.93;8.80;;;2.10;30.00;;;;;;5060359;28;46111;-69
2022/03/28 01:11:50;;;;;;;17.60;8.10;;;2.00;30.00;;;;;;5061178;28;45840;-66
2022/03/28 01:14:16;;;;;;;21.75;9.00;;;2.00;30.00;;;;;;5060165;28;46429;-67
2022/03/28 01:19:46;;;;;;;18.85;8.80;;;2.00;30.30;;;;;;4951947;28;46677;-68
2022/03/28 01:22:11;;;;;;;22.40;8.63;;;2.00;30.20;;;;;;4952895;28;46611;-65
2022/03/28 01:24:37;;;;;;;17.30;8.20;;;1.90;30.10;;;;;;5004645;28;46554;-64
2022/03/28 01:27:04;;;;;;;22.10;8.85;;;2.00;30.20;;;;;;5063450;28;46468;-64
2022/03/28 01:29:29;;;;;;;21.88;9.40;;;2.00;30.20;;;;;;5070278;28;46196;-65
2022/03/28 01:31:55;;;;;;;21.50;8.60;;;2.00;30.30;;;;;;5069773;28;46355;-66
2022/03/28 01:34:21;;;;;;;29.40;8.50;;;2.00;30.10;;;;;;5061411;28;45772;-69
2022/03/28 01:36:48;;;;;;;16.27;8.27;;;2.00;30.20;;;;;;5065474;28;46255;-65
2022/03/28 01:39:15;;;;;;;17.90;8.52;;;2.10;30.40;;;;;;5070604;28;46472;-66
2022/03/28 01:41:40;;;;;;;17.83;8.82;;;2.10;30.40;;;;;;5061539;28;46384;-66
2022/03/28 01:44:06;;;;;;;17.73;7.90;;;2.10;30.50;;;;;;5060637;28;46654;-65
2022/03/28 01:46:44;;;;;;;20.20;9.20;;;2.10;30.60;;;;;;5061016;28;46511;-65
2022/03/28 01:49:10;;;;;;;19.30;9.52;;;2.10;30.70;;;;;;5061673;28;46520;-67
2022/03/28 01:51:36;;;;;;;25.88;8.55;;;2.00;30.60;;;;;;5060604;28;46432;-65
2022/03/28 01:54:02;;;;;;;17.57;8.10;;;2.00;30.70;;;;;;5060197;28;46474;-64
2022/03/28 01:56:28;;;;;;;18.77;8.73;;;2.00;30.80;;;;;;5060487;28;46362;-64
2022/03/28 01:58:54;;;;;;;18.73;9.70;;;2.10;31.10;;;;;;5058453;28;47171;-65
2022/03/28 02:01:20;;;;;;;18.97;9.77;;;2.10;31.00;;;;;;5069082;28;46682;-65
2022/03/28 02:03:45;;;;;;;20.93;9.73;;;2.10;31.00;;;;;;5060675;28;46602;-65
2022/03/28 02:06:11;;;;;;;17.70;8.93;;;2.10;31.00;;;;;;5058450;28;46436;-65
2022/03/28 02:08:37;;;;;;;17.30;8.43;;;2.10;31.20;;;;;;5058888;28;46439;-68
2022/03/28 02:11:02;;;;;;;20.03;9.40;;;2.10;31.10;;;;;;5057649;28;46498;-66
2022/03/28 02:13:28;;;;;;;18.10;8.60;;;2.00;31.20;;;;;;5065364;28;46850;-66
2022/03/28 02:15:53;;;;;;;16.60;8.90;;;2.00;31.20;;;;;;5060581;28;46848;-70
2022/03/28 02:18:19;;;;;;;31.47;9.67;;;2.00;31.40;;;;;;5059638;28;47185;-65
2022/03/28 02:20:44;;;;;;;23.37;8.97;;;2.00;31.40;;;;;;5057203;28;45851;-66
2022/03/28 02:23:10;;;;;;;20.30;10.07;;;2.00;31.40;;;;;;5057956;28;46707;-65
2022/03/28 02:25:37;;;;;;;23.60;11.07;;;2.20;31.60;;;;;;5058639;28;46691;-65
2022/03/28 02:28:03;;;;;;;21.05;11.10;;;2.10;31.50;;;;;;5059178;28;46664;-68
2022/03/28 02:30:30;;;;;;;21.63;11.00;;;2.20;31.60;;;;;;5059375;28;46301;-66
2022/03/28 02:32:57;;;;;;;22.80;10.70;;;2.30;31.80;;;;;;5061527;28;46899;-67
2022/03/28 02:35:23;;;;;;;23.85;10.98;;;2.30;32.00;;;;;;5058882;28;46439;-67
2022/03/28 02:37:49;;;;;;;28.27;11.05;;;2.40;32.20;;;;;;5060642;28;46388;-67
2022/03/28 02:40:15;;;;;;;28.95;10.63;;;2.40;32.80;;;;;;5058768;28;46470;-67
2022/03/28 02:42:41;;;;;;;21.05;10.40;;;2.50;33.00;;;;;;5057715;28;46468;-68
2022/03/28 02:45:08;;;;;;;19.97;9.70;;;2.50;33.70;;;;;;5060112;28;46298;-65
2022/03/28 02:47:34;;;;;;;27.08;10.68;;;2.50;32.90;;;;;;5056810;28;46580;-67
2022/03/28 02:50:00;;;;;;;22.67;10.77;;;2.40;32.80;;;;;;5058553;28;46338;-66
2022/03/28 02:52:25;;;;;;;23.23;11.83;;;2.40;32.80;;;;;;5060691;28;46391;-67
2022/03/28 02:54:51;;;;;;;21.57;10.10;;;2.40;32.90;;;;;;5059713;28;45815;-66
2022/03/28 02:57:17;;;;;;;21.30;10.00;;;2.50;33.00;;;;;;5062192;28;47152;-66
2022/03/28 02:59:43;;;;;;;20.37;10.50;;;2.60;33.40;;;;;;5060701;28;46331;-67
2022/03/28 03:02:09;;;;;;;22.17;11.50;;;2.50;33.70;;;;;;5060482;28;46405;-67
2022/03/28 03:04:34;;;;;;;18.90;10.03;;;2.50;33.80;;;;;;5044827;28;46859;-66
2022/03/28 03:07:00;;;;;;;30.67;11.57;;;2.50;34.00;;;;;;5059802;28;46958;-66
2022/03/28 03:09:26;;;;;;;22.17;9.70;;;2.40;34.30;;;;;;5060897;28;46373;-66
2022/03/28 03:11:51;;;;;;;24.53;10.73;;;2.50;34.40;;;;;;5060768;28;46264;-66
2022/03/28 03:14:17;;;;;;;22.10;10.43;;;2.50;34.60;;;;;;5063183;28;46622;-67
2022/03/28 03:16:43;;;;;;;21.17;9.07;;;2.50;34.60;;;;;;5058816;28;46442;-66
2022/03/28 03:19:09;;;;;;;26.13;11.10;;;2.40;34.70;;;;;;5060367;28;46392;-66
2022/03/28 03:21:35;;;;;;;17.07;9.47;;;2.40;34.80;;;;;;5064496;28;46555;-66
2022/03/28 03:24:01;;;;;;;19.48;9.52;;;2.30;34.70;;;;;;5066388;28;46373;-66
2022/03/28 03:26:28;;;;;;;17.73;9.18;;;2.20;34.90;;;;;;5060433;28;47177;-66
2022/03/28 03:28:55;;;;;;;21.17;9.10;;;2.10;34.90;;;;;;5069443;28;46741;-67
2022/03/28 03:31:22;;;;;;;22.13;10.52;;;2.00;35.00;;;;;;5072670;28;46376;-67
2022/03/28 03:33:47;;;;;;;24.05;9.82;;;1.90;36.10;;;;;;5066133;28;46289;-66
2022/03/28 03:36:13;;;;;;;17.13;9.07;;;1.90;35.00;;;;;;5061188;28;46499;-67
2022/03/28 03:38:39;;;;;;;21.80;9.10;;;2.00;35.00;;;;;;5065076;28;46333;-69
2022/03/28 03:41:04;;;;;;;21.10;10.07;;;1.90;34.80;;;;;;5065403;28;46407;-65
2022/03/28 03:43:30;;;;;;;18.43;9.43;;;1.80;34.90;;;;;;5065797;28;46472;-65
2022/03/28 03:45:56;;;;;;;19.53;9.80;;;1.80;34.80;;;;;;5071175;28;48179;-66
2022/03/28 03:48:22;;;;;;;23.13;9.17;;;1.60;34.90;;;;;;5070466;28;46348;-66
2022/03/28 03:50:48;;;;;;;14.93;9.27;;;1.50;34.90;;;;;;5069930;28;45946;-65
2022/03/28 03:53:14;;;;;;;20.70;9.35;;;1.40;35.00;;;;;;5073791;28;46416;-69
2022/03/28 03:55:40;;;;;;;19.33;9.32;;;1.30;35.00;;;;;;5066926;28;46003;-66
2022/03/28 03:58:06;;;;;;;21.10;9.57;;;1.30;35.10;;;;;;5063536;28;46420;-66
2022/03/28 04:00:32;;;;;;;15.57;8.20;;;1.30;35.10;;;;;;5078063;28;46461;-66
2022/03/28 04:02:57;;;;;;;21.13;9.50;;;1.20;35.10;;;;;;5066293;28;46414;-65
2022/03/28 04:05:23;;;;;;;19.07;9.37;;;1.20;35.00;;;;;;5063843;28;47614;-69
2022/03/28 04:07:49;;;;;;;14.98;8.68;;;1.20;35.10;;;;;;5054254;28;46421;-66
2022/03/28 04:10:14;;;;;;;21.03;8.73;;;1.10;35.00;;;;;;5066035;28;45920;-66
2022/03/28 04:12:40;;;;;;;19.70;9.20;;;1.10;35.10;;;;;;5062342;28;46390;-66
2022/03/28 04:15:07;;;;;;;23.93;10.33;;;1.10;35.10;;;;;;5065021;28;46945;-66
2022/03/28 04:17:40;;;;;;;21.15;9.20;;;1.10;35.10;;;;;;5073383;28;45975;-66
2022/03/28 04:20:06;;;;;;;18.75;8.50;;;1.10;36.40;;;;;;5067173;28;46370;-67
2022/03/28 04:22:31;;;;;;;19.27;8.07;;;1.10;35.00;;;;;;5062670;28;46493;-67
2022/03/28 04:24:57;;;;;;;19.27;7.97;;;1.10;35.00;;;;;;5070594;28;47282;-65
2022/03/28 04:27:23;;;;;;;20.03;11.63;;;1.10;35.10;;;;;;5065928;28;46068;-66
2022/03/28 04:29:48;;;;;;;19.90;9.30;;;1.00;37.10;;;;;;5062994;28;46365;-66
2022/03/28 04:32:14;;;;;;;22.57;9.57;;;1.00;37.40;;;;;;5061776;28;46327;-66
2022/03/28 04:34:40;;;;;;;23.67;9.30;;;1.00;37.10;;;;;;5062973;28;46047;-66
2022/03/28 04:37:07;;;;;;;20.70;8.40;;;1.00;36.80;;;;;;5056472;28;46425;-64
2022/03/28 04:39:33;;;;;;;18.08;9.20;;;1.10;37.90;;;;;;5061256;28;45939;-65
2022/03/28 04:41:59;;;;;;;19.17;9.48;;;1.10;36.50;;;;;;5060189;28;46322;-65
2022/03/28 04:44:25;;;;;;;21.27;10.00;;;1.10;36.40;;;;;;5059902;28;46503;-63
2022/03/28 04:46:50;;;;;;;20.90;9.73;;;1.10;36.30;;;;;;5062065;28;46493;-64
2022/03/28 04:49:17;;;;;;;25.00;10.07;;;1.10;36.30;;;;;;5065913;28;46472;-65
2022/03/28 04:51:43;;;;;;;22.55;9.13;;;1.20;36.30;;;;;;5062301;28;46743;-64
2022/03/28 04:54:08;;;;;;;24.37;9.90;;;1.20;36.40;;;;;;5062071;28;46388;-63
2022/03/28 04:56:34;;;;;;;20.27;10.03;;;1.20;36.40;;;;;;5069273;28;45802;-66
2022/03/28 04:59:02;;;;;;;27.65;10.23;;;1.20;36.40;;;;;;5062222;28;45856;-66
2022/03/28 05:01:27;;;;;;;33.20;11.25;;;1.20;36.30;;;;;;5060278;28;46406;-65
2022/03/28 05:03:53;;;;;;;28.50;13.67;;;1.30;36.40;;;;;;5060591;28;47138;-64
2022/03/28 05:06:19;;;;;;;36.00;13.73;;;1.30;36.40;;;;;;5058367;28;46498;-65
2022/03/28 05:08:44;;;;;;;22.00;10.13;;;1.40;36.40;;;;;;5063500;28;46415;-64
2022/03/28 05:11:10;;;;;;;27.87;11.87;;;1.40;36.50;;;;;;5058827;28;46515;-66
2022/03/28 05:13:35;;;;;;;24.97;11.90;;;1.50;36.60;;;;;;5062023;28;46542;-66
2022/03/28 05:16:02;;;;;;;21.13;10.50;;;1.60;36.50;;;;;;5062796;28;46472;-68
2022/03/28 05:18:27;;;;;;;23.10;10.57;;;1.60;36.50;;;;;;5063967;28;46496;-66
2022/03/28 05:20:53;;;;;;;40.83;11.83;;;1.70;36.50;;;;;;5063442;28;46461;-65
2022/03/28 05:23:19;;;;;;;23.07;10.40;;;1.70;36.60;;;;;;5060661;28;46100;-64
2022/03/28 05:25:44;;;;;;;24.23;11.80;;;1.80;36.50;;;;;;5060022;28;46640;-64
2022/03/28 05:28:10;;;;;;;21.40;10.40;;;1.90;38.30;;;;;;5062381;28;46469;-67
2022/03/28 05:30:35;;;;;;;17.17;9.93;;;1.90;38.60;;;;;;5060494;28;46488;-65
2022/03/28 05:33:01;;;;;;;24.97;10.93;;;1.90;38.30;;;;;;5058431;28;46632;-64
2022/03/28 05:35:27;;;;;;;27.00;10.50;;;2.00;38.10;;;;;;5059362;28;46411;-66
2022/03/28 05:37:53;;;;;;;22.38;10.05;;;2.00;37.80;;;;;;5067428;28;45913;-64
2022/03/28 05:40:19;;;;;;;23.30;11.07;;;2.30;37.70;;;;;;5058751;28;46553;-66
2022/03/28 05:42:45;;;;;;;17.90;9.90;;;2.60;37.90;;;;;;5063772;28;48261;-65
2022/03/28 05:45:13;;;;;;;22.63;10.63;;;2.90;38.00;;;;;;5060536;28;46514;-64
2022/03/28 05:47:39;;;;;;;20.73;9.70;;;3.50;38.10;;;;;;5062207;28;46475;-65
2022/03/28 05:50:05;;;;;;;18.70;10.00;;;3.80;37.50;;;;;;5060842;28;46335;-65
2022/03/28 05:52:31;;;;;;;20.88;10.25;;;4.20;37.10;;;;;;5060347;28;45933;-64
2022/03/28 05:54:57;;;;;;;25.10;10.30;;;4.50;36.60;;;;;;5061256;28;46407;-63
2022/03/28 05:57:22;;;;;;;24.20;10.90;;;4.80;35.70;;;;;;5061506;28;46406;-65
2022/03/28 05:59:49;;;;;;;20.03;10.50;;;4.90;35.10;;;;;;5061815;28;45898;-65
2022/03/28 06:02:14;;;;;;;21.80;10.40;;;5.10;34.40;;;;;;5061845;28;46752;-64
2022/03/28 06:04:40;;;;;;;25.03;10.37;;;4.90;34.30;;;;;;5063116;28;46658;-64
2022/03/28 06:07:05;;;;;;;18.10;10.10;;;4.80;34.40;;;;;;5062725;28;46423;-64
2022/03/28 06:09:31;;;;;;;24.90;12.27;;;4.80;34.90;;;;;;5064864;28;46480;-63
2022/03/28 06:11:57;;;;;;;28.67;10.37;;;4.80;35.00;;;;;;5066245;28;46109;-64
2022/03/28 06:14:22;;;;;;;28.53;9.60;;;4.90;35.30;;;;;;5058394;28;46323;-64
2022/03/28 06:16:48;;;;;;;27.53;11.27;;;5.30;35.40;;;;;;5060357;28;46905;-65
2022/03/28 06:19:14;;;;;;;25.33;10.60;;;5.70;35.00;;;;;;5059476;28;46440;-65
2022/03/28 06:21:40;;;;;;;25.50;11.80;;;5.90;33.50;;;;;;5058910;28;48236;-65
2022/03/28 06:24:07;;;;;;;31.90;11.40;;;5.80;33.50;;;;;;5057225;28;46510;-66
2022/03/28 06:26:32;;;;;;;24.63;11.43;;;5.80;33.70;;;;;;5059680;28;46416;-65
2022/03/28 06:28:58;;;;;;;26.30;11.53;;;5.90;33.60;;;;;;5061898;28;46279;-64
2022/03/28 06:31:24;;;;;;;31.53;12.07;;;6.10;33.70;;;;;;5062854;28;46445;-66
2022/03/28 06:33:51;;;;;;;24.63;12.67;;;6.20;33.60;;;;;;5066223;28;46199;-63
2022/03/28 06:36:17;;;;;;;39.83;12.83;;;6.40;33.40;;;;;;5060903;28;46577;-66
2022/03/28 06:38:43;;;;;;;29.03;12.17;;;6.50;33.40;;;;;;5070611;28;46591;-64
2022/03/28 06:41:09;;;;;;;30.83;12.10;;;6.70;33.50;;;;;;5067914;28;47170;-64
2022/03/28 06:43:35;;;;;;;25.37;13.23;;;6.90;33.40;;;;;;5063201;28;46397;-65
2022/03/28 06:46:00;;;;;;;21.00;10.70;;;7.10;33.40;;;;;;5061545;28;46583;-65
2022/03/28 06:48:26;;;;;;;27.90;13.10;;;7.20;33.30;;;;;;5060169;28;46366;-65
2022/03/28 06:50:51;;;;;;;21.67;12.33;;;7.40;33.50;;;;;;5058899;28;48131;-67
2022/03/28 06:53:17;;;;;;;22.43;11.67;;;7.60;33.30;;;;;;5060911;28;46625;-66
2022/03/28 06:55:43;;;;;;;29.20;13.20;;;7.90;33.40;;;;;;5065001;28;46393;-67
2022/03/28 06:58:09;;;;;;;24.30;13.07;;;8.10;33.30;;;;;;5063223;28;46462;-63
2022/03/28 07:00:34;;;;;;;23.57;12.83;;;8.30;33.10;;;;;;5059557;28;46224;-66
2022/03/28 07:03:00;;;;;;;24.03;12.50;;;8.50;33.00;;;;;;5068368;28;46484;-66
2022/03/28 07:05:28;;;;;;;23.83;12.00;;;8.60;33.00;;;;;;5065493;28;46462;-65
2022/03/28 07:07:55;;;;;;;20.73;11.60;;;8.90;33.10;;;;;;5047345;28;45994;-65
2022/03/28 07:10:22;;;;;;;24.27;13.63;;;9.10;33.00;;;;;;5062608;28;46494;-65
2022/03/28 07:12:47;;;;;;;22.40;12.43;;;9.30;32.80;;;;;;5066035;28;46270;-64
2022/03/28 07:15:14;;;;;;;22.13;11.73;;;9.50;32.70;;;;;;5060641;28;45912;-65
2022/03/28 07:17:55;;;;;;;22.00;12.80;;;9.70;32.80;;;;;;5060531;28;45861;-65
2022/03/28 07:20:27;;;;;;;21.80;12.93;;;9.90;32.70;;;;;;5059007;28;46574;-65
2022/03/28 07:22:53;;;;;;;25.50;12.33;;;10.10;31.50;;;;;;5059123;28;46447;-66
2022/03/28 07:25:19;;;;;;;25.63;12.50;;;10.30;31.20;;;;;;5061769;28;46364;-66
2022/03/28 07:27:46;;;;;;;26.10;13.50;;;10.60;31.10;;;;;;5060937;28;45993;-64
2022/03/28 07:30:13;;;;;;;28.67;13.27;;;10.80;30.90;;;;;;5059012;28;47036;-65
2022/03/28 07:32:39;;;;;;;21.57;12.80;;;11.00;30.60;;;;;;5053698;28;46382;-65
2022/03/28 07:35:06;;;;;;;30.03;11.73;;;11.20;30.30;;;;;;5063392;28;46522;-68
2022/03/28 07:37:32;;;;;;;37.40;13.67;;;11.40;30.20;;;;;;5058513;28;46426;-66
2022/03/28 07:39:58;;;;;;;29.53;12.00;;;11.60;30.00;;;;;;5062496;28;46422;-67
2022/03/28 07:42:24;;;;;;;28.70;13.47;;;11.80;29.90;;;;;;5062676;28;45968;-65
2022/03/28 07:44:55;;;;;;;33.23;11.47;;;12.00;29.80;;;;;;5059194;28;46363;-64
2022/03/28 07:47:22;;;;;;;21.13;10.43;;;12.20;29.60;;;;;;5060803;28;46374;-67
2022/03/28 07:49:48;;;;;;;22.90;10.80;;;12.40;29.30;;;;;;5058796;28;47197;-64
2022/03/28 07:52:14;;;;;;;19.87;11.07;;;12.60;29.00;;;;;;5058348;28;46509;-64
2022/03/28 07:54:40;;;;;;;20.43;11.10;;;12.80;28.60;;;;;;5056956;28;46462;-64
2022/03/28 07:57:06;;;;;;;20.37;11.10;;;13.00;28.30;;;;;;5059497;28;46523;-65
2022/03/28 07:59:32;;;;;;;21.53;12.30;;;13.20;28.40;;;;;;5058147;28;46815;-64
2022/03/28 08:01:58;;;;;;;26.70;12.77;;;13.40;28.50;;;;;;5049043;28;46624;-63
2022/03/28 08:04:23;;;;;;;23.63;11.40;;;13.50;28.30;;;;;;5057408;28;46397;-64
2022/03/28 08:06:50;;;;;;;18.23;10.90;;;13.70;27.90;;;;;;5057959;28;46461;-65
2022/03/28 08:09:17;;;;;;;24.63;12.70;;;13.80;27.80;;;;;;5066980;28;46891;-67
2022/03/28 08:11:43;;;;;;;17.77;10.50;;;13.80;27.40;;;;;;5058844;28;46341;-64
2022/03/28 08:14:08;;;;;;;25.03;11.93;;;13.90;27.40;;;;;;5061270;28;46453;-63
2022/03/28 08:16:34;;;;;;;60.70;31.63;;;14.00;27.00;;;;;;5061792;28;46768;-67
2022/03/28 08:19:00;;;;;;;25.67;14.43;;;14.00;26.90;;;;;;5060195;28;46480;-66
2022/03/28 08:21:26;;;;;;;62.13;32.27;;;14.00;26.80;;;;;;5064294;28;46413;-66
2022/03/28 08:23:51;;;;;;;24.13;11.77;;;14.20;26.60;;;;;;5067356;28;46376;-67
2022/03/28 08:26:17;;;;;;;20.10;12.00;;;14.40;26.50;;;;;;5068713;28;45823;-65
2022/03/28 08:28:44;;;;;;;30.80;17.03;;;14.60;26.10;;;;;;5063682;28;47435;-64
2022/03/28 08:31:10;;;;;;;24.50;13.07;;;14.70;26.10;;;;;;5051503;28;46458;-64
2022/03/28 08:33:35;;;;;;;24.27;13.03;;;14.90;25.80;;;;;;5061940;28;46402;-65
2022/03/28 08:36:01;;;;;;;26.43;12.60;;;15.10;25.40;;;;;;5062490;28;45897;-65
2022/03/28 08:38:27;;;;;;;29.73;14.90;;;15.10;25.00;;;;;;5061954;28;46862;-65
2022/03/28 08:40:52;;;;;;;25.23;14.20;;;15.30;24.90;;;;;;5059140;28;46346;-64
2022/03/28 08:43:20;;;;;;;55.93;27.93;;;15.40;24.50;;;;;;5060432;28;46454;-63
2022/03/28 08:45:48;;;;;;;24.40;12.90;;;15.50;24.30;;;;;;5059710;28;46387;-64
2022/03/28 08:48:14;;;;;;;36.53;16.33;;;15.60;24.30;;;;;;5061953;28;46613;-64
2022/03/28 08:50:44;;;;;;;38.33;21.23;;;15.50;24.70;;;;;;5059896;28;46393;-65
2022/03/28 08:53:11;;;;;;;26.20;12.77;;;15.40;23.90;;;;;;5057971;28;46579;-64
2022/03/28 08:55:41;;;;;;;39.40;20.83;;;15.40;23.90;;;;;;5065390;28;46604;-64
2022/03/28 08:58:08;;;;;;;28.23;14.70;;;15.40;23.50;;;;;;5069277;28;46350;-65
2022/03/28 09:00:33;;;;;;;26.93;13.17;;;15.60;23.70;;;;;;5065087;28;46372;-67
2022/03/28 09:02:59;;;;;;;31.57;16.73;;;15.80;23.50;;;;;;5065671;28;45886;-64
2022/03/28 09:05:29;;;;;;;28.40;14.93;;;15.90;23.00;;;;;;5060319;28;46466;-64
2022/03/28 09:07:58;;;;;;;27.87;14.03;;;15.80;23.00;;;;;;5065356;28;46379;-68
2022/03/28 09:10:27;;;;;;;40.80;20.40;;;15.90;23.00;;;;;;5061033;28;46384;-65
2022/03/28 09:13:06;;;;;;;34.23;16.00;;;15.90;22.80;;;;;;5063074;28;46135;-64
2022/03/28 09:15:47;;;;;;;29.93;15.33;;;16.00;22.70;;;;;;5062484;28;46385;-65
2022/03/28 09:18:27;;;;;;;26.83;13.33;;;15.90;22.60;;;;;;5037347;28;48447;-65
2022/03/28 09:21:04;;;;;;;34.90;17.00;;;16.10;22.50;;;;;;5066456;28;46587;-65
2022/03/28 09:23:30;;;;;;;34.37;15.90;;;16.20;22.40;;;;;;5058493;28;46488;-65
2022/03/28 09:25:57;;;;;;;30.70;15.37;;;16.50;22.30;;;;;;5065076;28;46347;-66
2022/03/28 09:28:46;;;;;;;36.13;16.03;;;16.60;22.00;;;;;;5062172;28;48297;-65
2022/03/28 09:31:21;;;;;;;34.13;15.80;;;16.50;21.50;;;;;;5057817;28;46449;-65
2022/03/28 09:34:10;;;;;;;26.67;14.20;;;16.70;21.50;;;;;;5055082;28;46556;-65
2022/03/28 09:36:52;;;;;;;33.60;16.17;;;16.70;21.20;;;;;;5060350;28;46835;-64
2022/03/28 09:39:30;;;;;;;33.10;17.37;;;16.80;21.30;;;;;;5055777;28;46375;-65
2022/03/28 09:42:10;;;;;;;38.13;17.57;;;16.70;20.80;;;;;;5057036;28;46386;-64
2022/03/28 09:45:00;;;;;;;32.67;15.97;;;16.70;20.70;;;;;;5060522;28;46503;-64
2022/03/28 09:47:25;;;;;;;37.20;16.10;;;16.80;20.90;;;;;;5060133;28;46342;-64
2022/03/28 09:49:57;;;;;;;29.80;15.17;;;17.00;20.90;;;;;;5056264;28;46749;-64
2022/03/28 09:52:25;;;;;;;29.80;15.30;;;17.30;20.50;;;;;;5058696;28;46553;-66
2022/03/28 09:54:55;;;;;;;28.10;14.20;;;17.30;20.60;;;;;;5057193;28;46744;-66
2022/03/28 09:57:23;;;;;;;32.53;15.90;;;17.50;20.70;;;;;;5059797;28;46490;-65
2022/03/28 09:59:50;;;;;;;28.70;14.90;;;17.60;20.70;;;;;;5058981;28;46705;-64
2022/03/28 10:02:25;;;;;;;27.23;15.30;;;17.70;20.50;;;;;;5057762;28;46515;-65
2022/03/28 10:04:54;;;;;;;33.00;15.67;;;17.80;19.90;;;;;;5055697;28;46423;-66
2022/03/28 10:07:21;;;;;;;34.63;18.03;;;17.90;20.00;;;;;;5060452;28;46264;-64
2022/03/28 10:09:47;;;;;;;34.83;15.90;;;17.90;19.90;;;;;;5054221;28;46345;-64
2022/03/28 10:12:13;;;;;;;33.13;15.20;;;18.00;19.80;;;;;;5059434;28;46500;-63
2022/03/28 10:14:39;;;;;;;33.43;17.00;;;17.90;19.50;;;;;;5055651;28;46443;-65
2022/03/28 10:17:06;;;;;;;32.37;15.87;;;17.80;19.50;;;;;;5058181;28;46483;-64
2022/03/28 10:19:34;;;;;;;27.23;14.60;;;17.90;19.30;;;;;;5055310;28;47802;-63
2022/03/28 10:22:03;;;;;;;29.70;15.70;;;18.00;19.00;;;;;;5058297;28;46470;-65
2022/03/28 10:24:30;;;;;;;38.63;18.33;;;17.90;18.30;;;;;;5058975;28;46504;-64
2022/03/28 10:26:58;;;;;;;33.10;17.17;;;18.10;18.40;;;;;;5058777;28;46395;-64
2022/03/28 10:29:34;;;;;;;31.17;15.90;;;18.10;19.20;;;;;;5059388;28;46571;-63
2022/03/28 10:32:06;;;;;;;28.87;16.33;;;18.00;17.50;;;;;;5056559;28;46718;-64
2022/03/28 10:34:56;;;;;;;28.90;15.47;;;18.00;17.60;;;;;;5058709;28;46410;-65
2022/03/28 10:37:35;;;;;;;30.83;16.30;;;18.20;17.70;;;;;;5056750;28;46421;-63
2022/03/28 10:40:22;;;;;;;31.90;15.97;;;18.40;17.10;;;;;;5057857;28;47184;-65
2022/03/28 10:43:06;;;;;;;27.90;14.53;;;18.50;16.80;;;;;;5057412;28;46381;-66
2022/03/28 10:46:00;;;;;;;35.77;15.20;;;18.50;15.90;;;;;;5058574;28;46358;-64
2022/03/28 10:48:42;;;;;;;32.83;13.93;;;18.50;15.30;;;;;;5036339;28;46330;-64
2022/03/28 10:51:16;;;;;;;31.73;15.90;;;18.70;15.40;;;;;;5057352;28;46731;-66
2022/03/28 10:54:05;;;;;;;27.53;14.23;;;18.90;15.60;;;;;;5059122;28;46434;-65
2022/03/28 10:56:32;;;;;;;33.53;15.27;;;19.00;15.40;;;;;;5057551;28;46471;-64
2022/03/28 10:59:03;;;;;;;25.90;14.30;;;19.10;15.40;;;;;;5057480;28;46274;-64
2022/03/28 11:01:41;;;;;;;28.43;13.77;;;19.10;15.30;;;;;;5058536;28;46596;-66
2022/03/28 11:04:07;;;;;;;30.87;14.80;;;19.20;14.90;;;;;;5058651;28;46322;-64
2022/03/28 11:06:49;;;;;;;34.17;16.07;;;19.30;15.10;;;;;;5047886;28;46436;-63
2022/03/28 11:09:34;;;;;;;27.33;15.20;;;19.40;14.90;;;;;;5056034;28;46565;-65
2022/03/28 11:12:01;;;;;;;19.97;11.17;;;19.30;14.80;;;;;;5052578;28;47220;-64
2022/03/28 11:14:49;;;;;;;26.60;14.70;;;19.40;14.60;;;;;;5057403;28;46412;-65
2022/03/28 11:17:23;;;;;;;23.17;11.37;;;19.40;13.60;;;;;;5058472;28;46676;-66
2022/03/28 11:20:00;;;;;;;36.90;16.97;;;19.20;12.70;;;;;;5059623;28;46399;-64
2022/03/28 11:22:56;;;;;;;25.60;13.10;;;19.00;12.60;;;;;;5057124;28;48229;-65
2022/03/28 11:25:31;;;;;;;25.13;12.50;;;19.10;13.30;;;;;;5058297;28;46393;-64
2022/03/28 11:28:16;;;;;;;33.53;13.27;;;19.20;12.90;;;;;;5057595;28;46473;-64
2022/03/28 11:30:48;;;;;;;26.63;14.30;;;19.30;12.70;;;;;;5058137;28;46358;-65
2022/03/28 11:33:17;;;;;;;22.00;13.00;;;19.40;12.90;;;;;;5058621;28;46379;-65
2022/03/28 11:36:11;;;;;;;30.80;14.43;;;19.40;13.00;;;;;;5056604;28;46463;-65
2022/03/28 11:38:44;;;;;;;29.50;14.87;;;19.50;12.90;;;;;;5059073;28;46740;-64
2022/03/28 11:41:13;;;;;;;26.63;13.13;;;19.60;13.00;;;;;;5057185;28;46302;-65
2022/03/28 11:43:54;;;;;;;28.63;14.70;;;19.60;12.70;;;;;;5057279;28;46585;-65
2022/03/28 11:46:31;;;;;;;25.23;13.10;;;19.60;12.30;;;;;;5059163;28;45708;-65
2022/03/28 11:48:58;;;;;;;26.50;12.77;;;19.40;11.70;;;;;;5061975;28;45801;-65
2022/03/28 11:51:28;;;;;;;28.03;14.30;;;19.40;12.20;;;;;;5061820;28;45899;-65
2022/03/28 11:54:19;;;;;;;34.20;14.17;;;19.50;11.90;;;;;;5061710;28;46700;-64
2022/03/28 11:59:42;;;;;;;37.23;14.73;;;19.50;11.70;;;;;;5059882;28;46361;-65
2022/03/28 12:02:08;;;;;;;28.57;14.20;;;19.60;11.70;;;;;;5058037;28;46782;-64
2022/03/28 12:04:42;;;;;;;22.80;12.93;;;19.70;11.80;;;;;;5061374;28;46571;-64
2022/03/28 12:07:08;;;;;;;25.17;12.40;;;19.70;11.50;;;;;;5056580;28;46279;-64
2022/03/28 12:09:35;;;;;;;31.87;15.93;;;19.70;11.70;;;;;;5060796;28;46589;-65
2022/03/28 12:12:01;;;;;;;29.60;15.93;;;19.60;11.00;;;;;;5061356;28;46285;-66
2022/03/28 12:14:29;;;;;;;41.40;19.17;;;19.50;11.00;;;;;;5059348;28;47166;-65
2022/03/28 12:16:57;;;;;;;29.47;14.60;;;19.50;11.00;;;;;;5058367;28;46393;-63
2022/03/28 12:19:27;;;;;;;33.63;15.87;;;19.50;11.00;;;;;;5055516;28;46445;-63
2022/03/28 12:21:55;;;;;;;50.10;25.67;;;19.50;11.00;;;;;;5055485;28;46497;-64
2022/03/28 12:24:22;;;;;;;36.17;16.40;;;19.50;11.00;;;;;;5060628;28;46980;-64
2022/03/28 12:26:51;;;;;;;40.13;20.77;;;19.60;11.00;;;;;;5060615;28;46474;-63
2022/03/28 12:29:17;;;;;;;23.97;12.20;;;19.70;11.10;;;;;;5055963;28;46517;-63
2022/03/28 12:31:44;;;;;;;48.50;21.93;;;19.70;11.10;;;;;;5056011;28;46194;-62
2022/03/28 12:34:11;;;;;;;27.67;14.03;;;19.80;11.20;;;;;;5058861;28;47209;-63
2022/03/28 12:36:38;;;;;;;24.73;13.73;;;19.80;11.20;;;;;;5057419;28;46536;-63
2022/03/28 12:39:07;;;;;;;22.87;12.57;;;19.70;11.10;;;;;;5057873;28;46504;-64
2022/03/28 12:41:44;;;;;;;24.77;14.60;;;19.80;11.20;;;;;;5059003;28;46414;-63
2022/03/28 12:44:18;;;;;;;31.07;13.67;;;19.80;11.10;;;;;;5050523;28;46720;-64
2022/03/28 12:46:44;;;;;;;24.70;13.57;;;19.80;11.20;;;;;;5053974;28;46420;-63